Time,TemperatureF,DewpointF,PressureIn,WindDirection,WindDirectionDegrees,WindSpeedMPH,WindSpeedGustMPH,Humidity,HourlyPrecipIn,Conditions,Clouds,dailyrainin,SoftwareType,DateUTC
2013-07-31 00:00:00,60.8,58.5,30.07,North,0,0.0,0.0,92,0.00,,,0.00,WUHU216HW,2013-07-31 04:00:00,
2013-07-31 00:01:00,60.8,58.5,30.07,North,0,0.0,0.0,92,0.00,,,0.00,WUHU216HW,2013-07-31 04:01:00,
2013-07-31 00:02:00,60.8,58.5,30.07,North,0,0.0,0.0,92,0.00,,,0.00,WUHU216HW,2013-07-31 04:02:00,
2013-07-31 00:03:00,60.8,58.5,30.07,North,0,0.0,0.0,92,0.00,,,0.00,WUHU216HW,2013-07-31 04:03:00,
2013-07-31 00:04:00,60.7,58.4,30.08,North,0,0.0,0.0,92,0.00,,,0.00,WUHU216HW,2013-07-31 04:04:00,
2013-07-31 00:06:00,60.7,58.4,30.07,North,0,0.0,0.0,92,0.00,,,0.00,WUHU216HW,2013-07-31 04:06:00,
2013-07-31 00:11:00,60.7,58.4,30.07,North,0,0.0,0.0,92,0.00,,,0.00,WUHU216HW,2013-07-31 04:11:00,
2013-07-31 00:16:00,60.7,58.7,30.07,North,0,0.0,0.0,93,0.00,,,0.00,WUHU216HW,2013-07-31 04:16:00,
2013-07-31 00:21:00,60.7,58.7,30.07,North,0,0.0,0.0,93,0.00,,,0.00,WUHU216HW,2013-07-31 04:21:00,
2013-07-31 00:26:00,60.7,58.7,30.07,North,0,0.0,0.0,93,0.00,,,0.00,WUHU216HW,2013-07-31 04:26:00,
2013-07-31 00:32:00,60.7,58.7,30.07,North,0,0.0,0.0,93,0.00,,,0.00,WUHU216HW,2013-07-31 04:32:00,
2013-07-31 00:37:00,60.7,58.7,30.07,North,0,0.0,0.0,93,0.00,,,0.00,WUHU216HW,2013-07-31 04:37:00,
2013-07-31 00:42:00,60.5,58.5,30.07,North,0,0.0,0.0,93,0.00,,,0.00,WUHU216HW,2013-07-31 04:42:00,
2013-07-31 00:47:00,60.5,58.5,30.07,North,0,0.0,0.0,93,0.00,,,0.00,WUHU216HW,2013-07-31 04:47:00,
2013-07-31 00:52:00,60.5,58.5,30.07,North,0,0.0,0.0,93,0.00,,,0.00,WUHU216HW,2013-07-31 04:52:00,
2013-07-31 00:57:00,60.5,58.9,30.07,North,0,0.0,0.0,94,0.00,,,0.00,WUHU216HW,2013-07-31 04:57:00,
2013-07-31 01:02:00,60.5,58.9,30.07,North,0,0.0,0.0,94,0.00,,,0.00,WUHU216HW,2013-07-31 05:02:00,
2013-07-31 01:07:00,60.5,58.9,30.07,North,0,0.0,0.0,94,0.00,,,0.00,WUHU216HW,2013-07-31 05:07:00,
2013-07-31 01:12:00,60.7,59.0,30.07,North,0,0.0,0.0,94,0.00,,,0.00,WUHU216HW,2013-07-31 05:12:00,
2013-07-31 01:17:00,60.7,59.0,30.07,North,0,0.0,0.0,94,0.00,,,0.00,WUHU216HW,2013-07-31 05:17:00,
2013-07-31 01:22:00,60.7,59.0,30.07,North,0,0.0,0.0,94,0.00,,,0.00,WUHU216HW,2013-07-31 05:22:00,
2013-07-31 01:27:00,60.7,59.0,30.06,North,0,0.0,0.0,94,0.00,,,0.00,WUHU216HW,2013-07-31 05:27:00,
2013-07-31 01:32:00,60.7,59.4,30.06,North,0,0.0,0.0,96,0.00,,,0.00,WUHU216HW,2013-07-31 05:32:00,
2013-07-31 01:37:00,60.7,59.4,30.07,North,0,0.0,0.0,96,0.00,,,0.00,WUHU216HW,2013-07-31 05:37:00,
2013-07-31 01:42:00,60.7,59.4,30.06,North,0,0.0,0.0,96,0.00,,,0.00,WUHU216HW,2013-07-31 05:42:00,
2013-07-31 01:47:00,60.7,59.4,30.06,North,0,0.0,0.0,96,0.00,,,0.00,WUHU216HW,2013-07-31 05:47:00,
2013-07-31 01:52:00,60.8,59.5,30.06,North,0,0.0,0.0,96,0.00,,,0.00,WUHU216HW,2013-07-31 05:52:00,
2013-07-31 01:57:00,60.8,59.5,30.06,North,0,0.0,0.0,96,0.00,,,0.00,WUHU216HW,2013-07-31 05:57:00,
2013-07-31 02:03:00,60.8,59.5,30.06,North,0,0.0,0.0,96,0.00,,,0.00,WUHU216HW,2013-07-31 06:03:00,
2013-07-31 02:08:00,61.0,59.7,30.06,North,0,0.0,0.0,96,0.00,,,0.00,WUHU216HW,2013-07-31 06:08:00,
2013-07-31 02:13:00,61.2,59.9,30.06,North,0,0.0,0.0,96,0.00,,,0.00,WUHU216HW,2013-07-31 06:13:00,
2013-07-31 02:18:00,61.4,60.1,30.06,North,0,0.0,0.0,96,0.00,,,0.00,WUHU216HW,2013-07-31 06:18:00,
2013-07-31 02:23:00,61.6,60.3,30.06,North,0,0.0,0.0,96,0.00,,,0.00,WUHU216HW,2013-07-31 06:23:00,
2013-07-31 02:28:00,61.6,60.3,30.05,North,0,0.0,0.0,96,0.00,,,0.00,WUHU216HW,2013-07-31 06:28:00,
2013-07-31 02:33:00,61.7,60.4,30.05,North,0,0.0,0.0,96,0.00,,,0.00,WUHU216HW,2013-07-31 06:33:00,
2013-07-31 02:38:00,61.7,60.4,30.05,South,180,0.2,0.4,96,0.00,,,0.00,WUHU216HW,2013-07-31 06:38:00,
2013-07-31 02:43:00,61.9,60.6,30.05,North,0,0.0,0.0,96,0.00,,,0.00,WUHU216HW,2013-07-31 06:43:00,
2013-07-31 02:48:00,62.1,60.8,30.05,SW,225,0.6,1.1,96,0.00,,,0.00,WUHU216HW,2013-07-31 06:48:00,
2013-07-31 02:53:00,62.3,61.0,30.05,SW,225,0.2,0.7,96,0.00,,,0.00,WUHU216HW,2013-07-31 06:53:00,
2013-07-31 02:58:00,62.3,61.0,30.05,North,0,0.0,0.0,96,0.00,,,0.00,WUHU216HW,2013-07-31 06:58:00,
2013-07-31 03:03:00,62.5,61.2,30.05,North,0,0.0,0.0,96,0.00,,,0.00,WUHU216HW,2013-07-31 07:03:00,
2013-07-31 03:08:00,62.6,61.3,30.05,North,0,0.0,0.0,96,0.00,,,0.00,WUHU216HW,2013-07-31 07:08:00,
2013-07-31 03:13:00,62.8,61.5,30.05,North,0,0.0,0.0,96,0.00,,,0.00,WUHU216HW,2013-07-31 07:13:00,
2013-07-31 03:18:00,63.0,61.7,30.05,North,0,0.0,0.0,96,0.00,,,0.00,WUHU216HW,2013-07-31 07:18:00,
2013-07-31 03:24:00,63.2,61.9,30.05,North,0,0.0,0.0,96,0.00,,,0.00,WUHU216HW,2013-07-31 07:24:00,
2013-07-31 03:29:00,63.4,62.1,30.05,ENE,68,0.9,1.1,96,0.00,,,0.00,WUHU216HW,2013-07-31 07:29:00,
2013-07-31 03:34:00,63.7,62.4,30.05,East,90,1.0,1.1,96,0.00,,,0.00,WUHU216HW,2013-07-31 07:34:00,
2013-07-31 03:39:00,63.7,62.4,30.05,East,90,0.0,0.2,96,0.00,,,0.00,WUHU216HW,2013-07-31 07:39:00,
2013-07-31 03:44:00,63.7,62.4,30.05,ENE,68,0.1,0.2,96,0.00,,,0.00,WUHU216HW,2013-07-31 07:44:00,
2013-07-31 03:49:00,63.9,62.6,30.05,North,0,0.0,0.0,96,0.00,,,0.00,WUHU216HW,2013-07-31 07:49:00,
2013-07-31 03:54:00,64.1,62.8,30.05,North,0,0.0,0.0,96,0.00,,,0.00,WUHU216HW,2013-07-31 07:54:00,
2013-07-31 03:59:00,63.9,62.6,30.05,North,0,0.0,0.0,96,0.00,,,0.00,WUHU216HW,2013-07-31 07:59:00,
2013-07-31 04:04:00,63.9,62.6,30.05,North,0,0.0,0.0,96,0.00,,,0.00,WUHU216HW,2013-07-31 08:04:00,
2013-07-31 04:09:00,63.7,62.4,30.05,North,0,0.0,0.0,96,0.00,,,0.00,WUHU216HW,2013-07-31 08:09:00,
2013-07-31 04:14:00,63.7,62.4,30.05,North,0,0.0,0.0,96,0.00,,,0.00,WUHU216HW,2013-07-31 08:14:00,
2013-07-31 04:19:00,63.7,62.4,30.05,North,0,0.0,0.0,96,0.00,,,0.00,WUHU216HW,2013-07-31 08:19:00,
2013-07-31 04:24:00,63.7,62.4,30.05,North,0,0.0,0.0,96,0.00,,,0.00,WUHU216HW,2013-07-31 08:24:00,
2013-07-31 04:30:00,63.7,62.4,30.05,ESE,113,1.7,2.7,96,0.01,,,0.01,WUHU216HW,2013-07-31 08:30:00,
2013-07-31 04:35:00,63.7,62.4,30.05,East,93,3.5,4.7,96,0.01,,,0.01,WUHU216HW,2013-07-31 08:35:00,
2013-07-31 04:40:00,63.7,62.4,30.05,East,101,0.7,1.1,96,0.01,,,0.01,WUHU216HW,2013-07-31 08:40:00,
2013-07-31 04:45:00,63.7,62.4,30.05,North,0,0.0,0.0,96,0.01,,,0.01,WUHU216HW,2013-07-31 08:45:00,
2013-07-31 04:50:00,63.7,62.4,30.04,SE,135,0.3,0.4,96,0.01,,,0.01,WUHU216HW,2013-07-31 08:50:00,
2013-07-31 04:55:00,63.7,62.4,30.04,North,0,0.0,0.0,96,0.01,,,0.01,WUHU216HW,2013-07-31 08:55:00,
2013-07-31 05:00:00,63.7,62.4,30.04,North,0,0.0,0.0,96,0.01,,,0.01,WUHU216HW,2013-07-31 09:00:00,
2013-07-31 05:05:00,63.7,62.4,30.04,North,0,0.0,0.0,96,0.01,,,0.01,WUHU216HW,2013-07-31 09:05:00,
2013-07-31 05:10:00,63.7,62.4,30.04,North,0,0.0,0.0,96,0.01,,,0.01,WUHU216HW,2013-07-31 09:10:00,
2013-07-31 05:15:00,63.7,62.4,30.04,North,0,0.0,0.0,96,0.01,,,0.01,WUHU216HW,2013-07-31 09:15:00,
2013-07-31 05:20:00,63.7,62.4,30.04,North,0,0.0,0.0,96,0.01,,,0.01,WUHU216HW,2013-07-31 09:20:00,
2013-07-31 05:25:00,63.5,62.2,30.04,North,0,0.0,0.0,96,0.01,,,0.01,WUHU216HW,2013-07-31 09:25:00,
2013-07-31 05:30:00,63.5,62.2,30.04,North,0,0.0,0.0,96,0.00,,,0.01,WUHU216HW,2013-07-31 09:30:00,
2013-07-31 05:35:00,63.5,62.2,30.04,North,0,0.0,0.0,96,0.00,,,0.01,WUHU216HW,2013-07-31 09:35:00,
2013-07-31 05:40:00,63.5,62.2,30.04,North,0,0.0,0.0,96,0.00,,,0.01,WUHU216HW,2013-07-31 09:40:00,
2013-07-31 05:45:00,63.5,62.2,30.04,North,0,0.0,0.0,96,0.00,,,0.01,WUHU216HW,2013-07-31 09:45:00,
2013-07-31 05:50:00,63.5,62.2,30.04,North,0,0.0,0.0,96,0.00,,,0.01,WUHU216HW,2013-07-31 09:50:00,
2013-07-31 05:55:00,63.4,62.1,30.03,North,0,0.0,0.0,96,0.00,,,0.01,WUHU216HW,2013-07-31 09:55:00,
2013-07-31 06:00:00,63.5,62.2,30.04,North,0,0.0,0.0,96,0.00,,,0.01,WUHU216HW,2013-07-31 10:00:00,
2013-07-31 06:05:00,63.4,62.1,30.03,SE,135,0.3,0.4,96,0.00,,,0.01,WUHU216HW,2013-07-31 10:05:00,
2013-07-31 06:11:00,63.4,62.1,30.03,North,0,0.0,0.0,96,0.00,,,0.01,WUHU216HW,2013-07-31 10:11:00,
2013-07-31 06:16:00,63.4,62.1,30.03,North,0,0.0,0.0,96,0.00,,,0.01,WUHU216HW,2013-07-31 10:16:00,
2013-07-31 06:21:00,63.4,62.4,30.03,North,0,0.0,0.0,97,0.00,,,0.01,WUHU216HW,2013-07-31 10:21:00,
2013-07-31 06:26:00,63.4,62.4,30.03,ENE,68,0.4,0.4,97,0.00,,,0.01,WUHU216HW,2013-07-31 10:26:00,
2013-07-31 06:31:00,63.4,62.4,30.04,North,0,0.0,0.0,97,0.00,,,0.01,WUHU216HW,2013-07-31 10:31:00,
2013-07-31 06:36:00,63.4,62.4,30.04,North,0,0.0,0.0,97,0.00,,,0.01,WUHU216HW,2013-07-31 10:36:00,
2013-07-31 06:41:00,63.2,62.2,30.04,North,0,0.0,0.0,97,0.00,,,0.01,WUHU216HW,2013-07-31 10:41:00,
2013-07-31 06:46:00,63.2,62.2,30.04,North,0,0.2,0.4,97,0.00,,,0.01,WUHU216HW,2013-07-31 10:46:00,
2013-07-31 06:51:00,63.2,62.2,30.03,North,0,0.0,0.0,97,0.00,,,0.01,WUHU216HW,2013-07-31 10:51:00,
2013-07-31 06:56:00,63.2,62.2,30.03,North,0,0.0,0.0,97,0.00,,,0.01,WUHU216HW,2013-07-31 10:56:00,
2013-07-31 07:01:00,63.2,62.2,30.04,North,0,0.0,0.0,97,0.00,,,0.01,WUHU216HW,2013-07-31 11:01:00,
2013-07-31 07:06:00,63.4,62.4,30.04,North,0,0.0,0.0,97,0.00,,,0.01,WUHU216HW,2013-07-31 11:06:00,
2013-07-31 07:12:00,63.4,62.4,30.04,North,0,0.0,0.0,97,0.00,,,0.01,WUHU216HW,2013-07-31 11:12:00,
2013-07-31 07:17:00,63.4,62.4,30.04,East,90,0.9,1.1,97,0.00,,,0.01,WUHU216HW,2013-07-31 11:17:00,
2013-07-31 07:22:00,63.5,62.5,30.04,North,0,0.0,0.0,97,0.00,,,0.01,WUHU216HW,2013-07-31 11:22:00,
2013-07-31 07:27:00,63.5,62.5,30.04,ESE,116,0.5,1.1,97,0.00,,,0.01,WUHU216HW,2013-07-31 11:27:00,
2013-07-31 07:32:00,63.7,62.7,30.03,ESE,113,0.5,0.7,97,0.00,,,0.01,WUHU216HW,2013-07-31 11:32:00,
2013-07-31 07:37:00,63.7,62.7,30.03,East,95,1.5,2.5,97,0.00,,,0.01,WUHU216HW,2013-07-31 11:37:00,
2013-07-31 07:42:00,63.9,62.9,30.03,South,183,0.8,1.1,97,0.00,,,0.01,WUHU216HW,2013-07-31 11:42:00,
2013-07-31 07:47:00,64.1,63.1,30.04,NNE,23,0.9,1.8,97,0.00,,,0.01,WUHU216HW,2013-07-31 11:47:00,
2013-07-31 07:52:00,64.3,63.3,30.03,NNE,23,0.5,1.1,97,0.00,,,0.01,WUHU216HW,2013-07-31 11:52:00,
2013-07-31 07:57:00,64.3,63.3,30.03,East,90,0.3,0.7,97,0.00,,,0.01,WUHU216HW,2013-07-31 11:57:00,
2013-07-31 08:02:00,64.3,63.3,30.04,ENE,72,0.8,1.1,97,0.00,,,0.01,WUHU216HW,2013-07-31 12:02:00,
2013-07-31 08:07:00,64.3,63.3,30.04,ESE,113,0.0,0.2,97,0.00,,,0.01,WUHU216HW,2013-07-31 12:07:00,
2013-07-31 08:13:00,64.3,63.3,30.04,SE,135,0.3,1.1,97,0.00,,,0.01,WUHU216HW,2013-07-31 12:13:00,
2013-07-31 08:16:00,64.3,63.3,30.04,North,0,0.0,0.0,97,0.00,,,0.01,WUHU216HW,2013-07-31 12:16:00,
2013-07-31 08:21:00,64.4,63.4,30.04,ENE,68,0.4,0.4,97,0.00,,,0.01,WUHU216HW,2013-07-31 12:21:00,
2013-07-31 08:26:00,64.4,63.4,30.03,East,90,1.2,1.3,97,0.00,,,0.01,WUHU216HW,2013-07-31 12:26:00,
2013-07-31 08:31:00,64.4,63.4,30.03,SE,130,0.7,1.1,97,0.00,,,0.01,WUHU216HW,2013-07-31 12:31:00,
2013-07-31 08:36:00,64.4,63.1,30.03,East,79,1.0,1.1,96,0.00,,,0.01,WUHU216HW,2013-07-31 12:36:00,
2013-07-31 08:41:00,64.6,63.3,30.03,NE,54,1.0,1.1,96,0.00,,,0.01,WUHU216HW,2013-07-31 12:41:00,
2013-07-31 08:46:00,64.8,63.5,30.03,NE,45,0.1,0.4,96,0.00,,,0.01,WUHU216HW,2013-07-31 12:46:00,
2013-07-31 08:51:00,65.0,63.7,30.03,ENE,68,0.3,0.7,96,0.00,,,0.01,WUHU216HW,2013-07-31 12:51:00,
2013-07-31 08:56:00,65.2,63.9,30.03,North,0,0.5,0.7,96,0.00,,,0.01,WUHU216HW,2013-07-31 12:56:00,
2013-07-31 09:01:00,65.2,64.2,30.03,East,101,0.6,1.3,97,0.00,,,0.01,WUHU216HW,2013-07-31 13:01:00,
2013-07-31 09:06:00,65.3,64.3,30.03,East,96,0.8,2.0,97,0.00,,,0.01,WUHU216HW,2013-07-31 13:06:00,
2013-07-31 09:11:00,65.5,64.5,30.02,ENE,70,2.1,2.5,97,0.00,,,0.01,WUHU216HW,2013-07-31 13:11:00,
2013-07-31 09:16:00,65.5,64.5,30.02,ESE,105,1.1,1.1,97,0.00,,,0.01,WUHU216HW,2013-07-31 13:16:00,
2013-07-31 09:22:00,65.7,64.7,30.02,East,90,1.2,1.8,97,0.00,,,0.01,WUHU216HW,2013-07-31 13:22:00,
2013-07-31 09:27:00,65.9,64.9,30.02,ESE,118,1.7,2.9,97,0.00,,,0.01,WUHU216HW,2013-07-31 13:27:00,
2013-07-31 09:32:00,66.1,65.1,30.02,ESE,121,1.5,2.5,97,0.00,,,0.01,WUHU216HW,2013-07-31 13:32:00,
2013-07-31 09:37:00,66.1,65.1,30.02,ESE,113,0.8,1.1,97,0.00,,,0.01,WUHU216HW,2013-07-31 13:37:00,
2013-07-31 09:42:00,66.1,65.1,30.03,SSW,203,0.5,0.9,97,0.00,,,0.01,WUHU216HW,2013-07-31 13:42:00,
2013-07-31 09:47:00,66.2,65.2,30.03,SW,225,0.0,0.2,97,0.00,,,0.01,WUHU216HW,2013-07-31 13:47:00,
2013-07-31 09:52:00,66.4,65.4,30.03,ESE,113,0.4,0.7,97,0.00,,,0.01,WUHU216HW,2013-07-31 13:52:00,
2013-07-31 09:57:00,66.6,65.6,30.03,SE,141,0.2,0.7,97,0.00,,,0.01,WUHU216HW,2013-07-31 13:57:00,
2013-07-31 10:02:00,67.0,66.0,30.03,SW,225,0.4,0.7,97,0.00,,,0.01,WUHU216HW,2013-07-31 14:02:00,
2013-07-31 10:07:00,67.1,66.1,30.03,SSW,203,0.3,0.4,97,0.01,,,0.02,WUHU216HW,2013-07-31 14:07:00,
2013-07-31 10:12:00,67.1,66.1,30.03,SW,229,0.4,0.7,97,0.01,,,0.02,WUHU216HW,2013-07-31 14:12:00,
2013-07-31 10:17:00,67.0,66.0,30.03,North,0,0.0,0.0,97,0.02,,,0.03,WUHU216HW,2013-07-31 14:17:00,
2013-07-31 10:23:00,67.1,66.1,30.03,West,270,0.1,0.4,97,0.02,,,0.03,WUHU216HW,2013-07-31 14:23:00,
2013-07-31 10:28:00,67.3,66.3,30.03,North,0,0.0,0.0,97,0.02,,,0.03,WUHU216HW,2013-07-31 14:28:00,
2013-07-31 10:33:00,67.5,66.5,30.03,West,272,0.4,0.4,97,0.02,,,0.03,WUHU216HW,2013-07-31 14:33:00,
2013-07-31 10:38:00,67.7,66.3,30.03,North,0,0.0,0.0,96,0.02,,,0.03,WUHU216HW,2013-07-31 14:38:00,
2013-07-31 10:43:00,67.7,66.7,30.03,East,90,0.1,0.4,97,0.02,,,0.03,WUHU216HW,2013-07-31 14:43:00,
2013-07-31 10:48:00,68.2,66.8,30.03,East,90,0.3,0.4,96,0.02,,,0.03,WUHU216HW,2013-07-31 14:48:00,
2013-07-31 10:53:00,68.8,67.4,30.03,East,90,0.4,0.4,96,0.02,,,0.03,WUHU216HW,2013-07-31 14:53:00,
2013-07-31 10:58:00,69.1,67.7,30.03,North,0,0.0,0.0,96,0.02,,,0.03,WUHU216HW,2013-07-31 14:58:00,
2013-07-31 11:03:00,69.5,68.1,30.03,South,180,0.1,0.2,96,0.02,,,0.03,WUHU216HW,2013-07-31 15:03:00,
2013-07-31 11:08:00,69.5,67.8,30.03,SSE,158,0.1,0.2,94,0.01,,,0.03,WUHU216HW,2013-07-31 15:08:00,
2013-07-31 11:13:00,69.1,67.4,30.03,ESE,113,0.4,0.4,94,0.01,,,0.03,WUHU216HW,2013-07-31 15:13:00,
2013-07-31 11:18:00,68.6,66.9,30.03,East,90,0.1,0.4,94,0.02,,,0.05,WUHU216HW,2013-07-31 15:18:00,
2013-07-31 11:23:00,68.4,66.7,30.03,ESE,113,0.4,0.7,94,0.03,,,0.06,WUHU216HW,2013-07-31 15:23:00,
2013-07-31 11:29:00,68.2,66.5,30.02,NNE,28,1.0,1.6,94,0.05,,,0.08,WUHU216HW,2013-07-31 15:29:00,
2013-07-31 11:34:00,68.2,66.5,30.02,NE,45,1.7,2.5,94,0.05,,,0.08,WUHU216HW,2013-07-31 15:34:00,
2013-07-31 11:39:00,68.0,66.3,30.02,East,90,1.9,2.5,94,0.06,,,0.09,WUHU216HW,2013-07-31 15:39:00,
2013-07-31 11:44:00,68.0,66.3,30.02,East,82,2.0,2.2,94,0.06,,,0.09,WUHU216HW,2013-07-31 15:44:00,
2013-07-31 11:49:00,68.0,66.3,30.02,East,93,1.7,1.8,94,0.06,,,0.09,WUHU216HW,2013-07-31 15:49:00,
2013-07-31 11:54:00,67.9,66.2,30.01,East,85,3.5,4.3,94,0.06,,,0.09,WUHU216HW,2013-07-31 15:54:00,
2013-07-31 11:59:00,68.0,66.3,30.01,East,90,1.8,2.0,94,0.06,,,0.09,WUHU216HW,2013-07-31 15:59:00,
2013-07-31 12:04:00,68.2,66.5,30.01,ESE,103,3.7,4.3,94,0.06,,,0.09,WUHU216HW,2013-07-31 16:04:00,
2013-07-31 12:10:00,68.8,67.1,30.00,ENE,71,1.9,2.5,94,0.06,,,0.09,WUHU216HW,2013-07-31 16:10:00,
2013-07-31 12:15:00,69.1,67.4,30.00,NE,54,1.9,2.5,94,0.05,,,0.09,WUHU216HW,2013-07-31 16:15:00,
2013-07-31 12:20:00,69.7,67.6,30.00,ENE,63,1.3,3.1,93,0.04,,,0.09,WUHU216HW,2013-07-31 16:20:00,
2013-07-31 12:25:00,69.7,67.3,30.00,ENE,71,1.6,2.9,92,0.02,,,0.09,WUHU216HW,2013-07-31 16:25:00,
2013-07-31 12:30:00,69.5,67.1,30.00,East,90,3.5,4.5,92,0.01,,,0.09,WUHU216HW,2013-07-31 16:30:00,
2013-07-31 12:35:00,69.7,67.3,30.00,East,98,1.8,2.2,92,0.00,,,0.09,WUHU216HW,2013-07-31 16:35:00,
2013-07-31 12:40:00,69.5,67.1,30.00,ENE,68,1.4,2.7,92,0.00,,,0.09,WUHU216HW,2013-07-31 16:40:00,
2013-07-31 12:45:00,69.1,66.7,30.00,ESE,113,1.6,2.5,92,0.00,,,0.09,WUHU216HW,2013-07-31 16:45:00,
2013-07-31 12:50:00,68.9,66.5,29.99,East,88,3.4,3.8,92,0.00,,,0.09,WUHU216HW,2013-07-31 16:50:00,
2013-07-31 12:56:00,68.8,66.4,29.99,ESE,103,2.0,2.7,92,0.00,,,0.09,WUHU216HW,2013-07-31 16:56:00,
2013-07-31 13:01:00,68.8,66.8,29.99,East,95,2.1,2.9,93,0.00,,,0.09,WUHU216HW,2013-07-31 17:01:00,
2013-07-31 13:06:00,68.6,66.6,29.99,East,90,2.5,3.1,93,0.00,,,0.09,WUHU216HW,2013-07-31 17:06:00,
2013-07-31 13:11:00,68.8,66.8,29.98,North,10,1.3,1.8,93,0.00,,,0.09,WUHU216HW,2013-07-31 17:11:00,
2013-07-31 13:16:00,68.9,66.9,29.98,NE,38,0.8,1.3,93,0.00,,,0.09,WUHU216HW,2013-07-31 17:16:00,
2013-07-31 13:21:00,69.3,67.2,29.98,East,89,1.5,2.5,93,0.00,,,0.09,WUHU216HW,2013-07-31 17:21:00,
2013-07-31 13:26:00,69.1,67.0,29.98,East,97,2.6,3.6,93,0.00,,,0.09,WUHU216HW,2013-07-31 17:26:00,
2013-07-31 13:31:00,68.8,66.8,29.98,East,91,2.1,3.4,93,0.00,,,0.09,WUHU216HW,2013-07-31 17:31:00,
2013-07-31 13:36:00,68.6,66.6,29.98,East,85,0.6,1.1,93,0.00,,,0.09,WUHU216HW,2013-07-31 17:36:00,
2013-07-31 13:41:00,68.4,66.7,29.98,East,90,1.8,2.5,94,0.00,,,0.09,WUHU216HW,2013-07-31 17:41:00,
2013-07-31 13:46:00,68.2,66.5,29.98,East,101,2.1,2.5,94,0.01,,,0.10,WUHU216HW,2013-07-31 17:46:00,
2013-07-31 13:51:00,68.0,66.3,29.97,ESE,108,1.3,2.9,94,0.01,,,0.10,WUHU216HW,2013-07-31 17:51:00,
2013-07-31 13:56:00,67.9,66.2,29.97,East,90,0.7,1.3,94,0.01,,,0.10,WUHU216HW,2013-07-31 17:56:00,
2013-07-31 14:02:00,67.7,66.0,29.97,East,83,1.6,1.8,94,0.02,,,0.11,WUHU216HW,2013-07-31 18:02:00,
2013-07-31 14:07:00,67.5,65.8,29.97,East,90,0.7,1.8,94,0.02,,,0.11,WUHU216HW,2013-07-31 18:07:00,
2013-07-31 14:12:00,67.5,65.8,29.97,ESE,113,0.8,1.1,94,0.03,,,0.12,WUHU216HW,2013-07-31 18:12:00,
2013-07-31 14:17:00,67.7,66.3,29.97,East,90,1.4,1.8,96,0.04,,,0.13,WUHU216HW,2013-07-31 18:17:00,
2013-07-31 14:22:00,67.7,66.3,29.96,East,85,1.5,2.2,96,0.05,,,0.14,WUHU216HW,2013-07-31 18:22:00,
2013-07-31 14:27:00,67.7,66.3,29.96,East,90,1.8,2.0,96,0.06,,,0.15,WUHU216HW,2013-07-31 18:27:00,
2013-07-31 14:32:00,67.5,66.1,29.96,ESE,103,0.9,1.1,96,0.06,,,0.15,WUHU216HW,2013-07-31 18:32:00,
2013-07-31 14:37:00,67.3,65.9,29.96,NE,50,2.2,3.6,96,0.06,,,0.15,WUHU216HW,2013-07-31 18:37:00,
2013-07-31 14:42:00,67.1,65.8,29.96,East,89,2.8,3.6,96,0.07,,,0.16,WUHU216HW,2013-07-31 18:42:00,
2013-07-31 14:47:00,66.8,65.5,29.96,ENE,75,2.7,3.4,96,0.06,,,0.16,WUHU216HW,2013-07-31 18:47:00,
2013-07-31 14:52:00,66.6,65.3,29.96,East,96,1.1,2.2,96,0.06,,,0.16,WUHU216HW,2013-07-31 18:52:00,
2013-07-31 14:57:00,66.6,65.3,29.96,NNW,338,0.7,1.1,96,0.06,,,0.17,WUHU216HW,2013-07-31 18:57:00,
2013-07-31 15:02:00,66.6,65.6,29.96,West,272,1.7,2.5,97,0.08,,,0.19,WUHU216HW,2013-07-31 19:02:00,
2013-07-31 15:08:00,66.6,65.6,29.96,West,278,3.0,3.1,97,0.12,,,0.23,WUHU216HW,2013-07-31 19:08:00,
2013-07-31 15:13:00,66.6,65.6,29.95,East,90,0.7,1.1,97,0.18,,,0.30,WUHU216HW,2013-07-31 19:13:00,
2013-07-31 15:18:00,66.4,65.4,29.96,SE,135,0.6,1.1,97,0.19,,,0.32,WUHU216HW,2013-07-31 19:18:00,
2013-07-31 15:23:00,66.6,65.6,29.95,ESE,113,0.7,0.9,97,0.23,,,0.37,WUHU216HW,2013-07-31 19:23:00,
2013-07-31 15:28:00,66.4,65.4,29.95,NE,34,0.9,1.1,97,0.26,,,0.41,WUHU216HW,2013-07-31 19:28:00,
2013-07-31 15:33:00,66.4,65.4,29.95,NNE,17,1.6,1.8,97,0.29,,,0.44,WUHU216HW,2013-07-31 19:33:00,
2013-07-31 15:39:00,66.4,65.4,29.94,NNE,23,0.8,1.1,97,0.31,,,0.46,WUHU216HW,2013-07-31 19:39:00,
2013-07-31 15:44:00,66.2,65.2,29.94,East,80,0.8,0.9,97,0.32,,,0.48,WUHU216HW,2013-07-31 19:44:00,
2013-07-31 15:49:00,66.2,65.2,29.94,NNE,13,0.8,1.1,97,0.34,,,0.50,WUHU216HW,2013-07-31 19:49:00,
2013-07-31 15:54:00,66.2,65.2,29.94,ESE,108,1.0,1.6,97,0.33,,,0.50,WUHU216HW,2013-07-31 19:54:00,
2013-07-31 15:59:00,66.2,65.2,29.94,North,4,1.4,2.5,97,0.34,,,0.51,WUHU216HW,2013-07-31 19:59:00,
2013-07-31 16:04:00,66.2,65.2,29.94,NNE,23,0.2,0.4,97,0.32,,,0.51,WUHU216HW,2013-07-31 20:04:00,
2013-07-31 16:09:00,66.2,65.2,29.94,North,6,2.0,2.5,97,0.26,,,0.52,WUHU216HW,2013-07-31 20:09:00,
2013-07-31 16:14:00,66.2,65.2,29.94,East,79,0.9,1.3,97,0.21,,,0.52,WUHU216HW,2013-07-31 20:14:00,
2013-07-31 16:19:00,66.4,65.4,29.93,NNE,20,1.6,2.0,97,0.20,,,0.53,WUHU216HW,2013-07-31 20:19:00,
2013-07-31 16:25:00,66.6,65.6,29.93,East,99,0.8,0.9,97,0.17,,,0.54,WUHU216HW,2013-07-31 20:25:00,
2013-07-31 16:30:00,66.6,65.6,29.93,East,79,1.3,1.8,97,0.14,,,0.55,WUHU216HW,2013-07-31 20:30:00,
2013-07-31 16:35:00,66.6,65.6,29.93,NNE,16,1.1,2.5,97,0.13,,,0.57,WUHU216HW,2013-07-31 20:35:00,
2013-07-31 16:40:00,66.4,65.4,29.93,NNE,23,1.0,2.0,97,0.10,,,0.58,WUHU216HW,2013-07-31 20:40:00,
2013-07-31 16:45:00,66.4,65.4,29.93,NNE,27,1.3,2.5,97,0.10,,,0.58,WUHU216HW,2013-07-31 20:45:00,
2013-07-31 16:50:00,66.2,65.2,29.92,North,10,0.6,0.7,97,0.09,,,0.59,WUHU216HW,2013-07-31 20:50:00,
2013-07-31 16:55:00,66.1,65.1,29.92,NNE,32,0.5,0.7,97,0.10,,,0.60,WUHU216HW,2013-07-31 20:55:00,
2013-07-31 17:00:00,66.2,65.2,29.92,East,97,1.3,1.6,97,0.10,,,0.61,WUHU216HW,2013-07-31 21:00:00,
2013-07-31 17:05:00,66.1,65.1,29.92,NNE,23,0.4,0.4,97,0.11,,,0.62,WUHU216HW,2013-07-31 21:05:00,
2013-07-31 17:10:00,65.9,64.9,29.92,ENE,76,1.6,2.7,97,0.10,,,0.62,WUHU216HW,2013-07-31 21:10:00,
2013-07-31 17:15:00,65.9,64.9,29.92,NE,44,0.8,1.1,97,0.10,,,0.62,WUHU216HW,2013-07-31 21:15:00,
2013-07-31 17:20:00,65.9,64.9,29.92,NE,54,0.7,0.9,97,0.08,,,0.62,WUHU216HW,2013-07-31 21:20:00,
2013-07-31 17:25:00,65.9,64.9,29.91,East,90,0.8,1.8,97,0.08,,,0.62,WUHU216HW,2013-07-31 21:25:00,
2013-07-31 17:30:00,66.1,65.1,29.91,East,88,0.7,1.1,97,0.07,,,0.63,WUHU216HW,2013-07-31 21:30:00,
2013-07-31 17:36:00,66.1,65.1,29.91,East,90,0.3,0.9,97,0.06,,,0.63,WUHU216HW,2013-07-31 21:36:00,
2013-07-31 17:41:00,66.1,65.1,29.91,East,94,1.9,2.2,97,0.06,,,0.64,WUHU216HW,2013-07-31 21:41:00,
2013-07-31 17:46:00,65.9,64.9,29.91,East,98,1.5,2.0,97,0.06,,,0.64,WUHU216HW,2013-07-31 21:46:00,
2013-07-31 17:51:00,65.9,64.9,29.90,ENE,62,0.4,0.4,97,0.05,,,0.64,WUHU216HW,2013-07-31 21:51:00,
2013-07-31 17:56:00,65.9,64.9,29.90,ENE,68,0.3,0.4,97,0.04,,,0.64,WUHU216HW,2013-07-31 21:56:00,
2013-07-31 18:01:00,65.9,64.9,29.90,East,90,1.1,1.3,97,0.03,,,0.64,WUHU216HW,2013-07-31 22:01:00,
2013-07-31 18:06:00,65.9,64.9,29.90,East,94,1.8,2.0,97,0.02,,,0.64,WUHU216HW,2013-07-31 22:06:00,
2013-07-31 18:11:00,65.9,64.9,29.90,ENE,78,0.8,1.1,97,0.02,,,0.64,WUHU216HW,2013-07-31 22:11:00,
2013-07-31 18:16:00,65.9,64.9,29.89,NNE,15,0.5,0.9,97,0.02,,,0.64,WUHU216HW,2013-07-31 22:16:00,
2013-07-31 18:21:00,65.9,64.9,29.89,ESE,113,1.1,1.1,97,0.02,,,0.64,WUHU216HW,2013-07-31 22:21:00,
2013-07-31 18:27:00,65.9,64.9,29.89,East,89,1.2,1.6,97,0.03,,,0.65,WUHU216HW,2013-07-31 22:27:00,
2013-07-31 18:32:00,65.9,65.2,29.89,ENE,69,1.6,2.2,98,0.02,,,0.65,WUHU216HW,2013-07-31 22:32:00,
2013-07-31 18:37:00,65.9,64.9,29.89,ESE,113,1.5,2.2,97,0.02,,,0.65,WUHU216HW,2013-07-31 22:37:00,
2013-07-31 18:42:00,65.9,64.9,29.88,ESE,104,1.8,2.0,97,0.01,,,0.65,WUHU216HW,2013-07-31 22:42:00,
2013-07-31 18:47:00,65.9,64.9,29.88,NNE,23,0.1,0.2,97,0.01,,,0.65,WUHU216HW,2013-07-31 22:47:00,
2013-07-31 18:52:00,65.9,64.9,29.88,ESE,113,0.5,0.9,97,0.01,,,0.65,WUHU216HW,2013-07-31 22:52:00,
2013-07-31 18:57:00,65.9,64.9,29.88,ESE,113,0.7,1.1,97,0.01,,,0.65,WUHU216HW,2013-07-31 22:57:00,
2013-07-31 19:02:00,66.1,65.1,29.88,East,90,0.9,1.3,97,0.01,,,0.65,WUHU216HW,2013-07-31 23:02:00,
2013-07-31 19:07:00,66.1,65.1,29.88,East,90,0.1,0.4,97,0.01,,,0.65,WUHU216HW,2013-07-31 23:07:00,
2013-07-31 19:12:00,66.1,65.1,29.88,ENE,68,0.1,0.2,97,0.01,,,0.65,WUHU216HW,2013-07-31 23:12:00,
2013-07-31 19:17:00,66.1,65.1,29.88,North,0,0.0,0.0,97,0.02,,,0.66,WUHU216HW,2013-07-31 23:17:00,
2013-07-31 19:22:00,66.1,65.1,29.88,North,0,0.0,0.0,97,0.02,,,0.66,WUHU216HW,2013-07-31 23:22:00,
2013-07-31 19:28:00,66.2,65.2,29.88,East,86,0.7,0.9,97,0.01,,,0.66,WUHU216HW,2013-07-31 23:28:00,
2013-07-31 19:33:00,66.2,65.2,29.88,WSW,248,0.2,0.4,97,0.01,,,0.66,WUHU216HW,2013-07-31 23:33:00,
2013-07-31 19:38:00,66.4,65.4,29.88,SE,135,0.4,0.7,97,0.01,,,0.66,WUHU216HW,2013-07-31 23:38:00,
2013-07-31 19:43:00,66.4,65.4,29.88,North,0,0.8,0.9,97,0.01,,,0.66,WUHU216HW,2013-07-31 23:43:00,
2013-07-31 19:48:00,66.2,65.2,29.88,North,0,0.0,0.0,97,0.01,,,0.66,WUHU216HW,2013-07-31 23:48:00,
2013-07-31 19:53:00,66.2,65.2,29.88,North,0,0.0,0.0,97,0.01,,,0.66,WUHU216HW,2013-07-31 23:53:00,
2013-07-31 19:58:00,66.2,65.5,29.88,North,0,0.0,0.0,98,0.02,,,0.67,WUHU216HW,2013-07-31 23:58:00,
2013-07-31 20:03:00,66.2,65.5,29.88,North,0,0.0,0.0,98,0.02,,,0.67,WUHU216HW,2013-08-01 00:03:00,
2013-07-31 20:08:00,66.1,65.1,29.88,North,0,0.0,0.0,97,0.02,,,0.67,WUHU216HW,2013-08-01 00:08:00,
2013-07-31 20:13:00,66.1,65.4,29.88,North,0,0.0,0.0,98,0.02,,,0.67,WUHU216HW,2013-08-01 00:13:00,
2013-07-31 20:18:00,66.1,65.4,29.88,North,0,0.0,0.0,98,0.01,,,0.67,WUHU216HW,2013-08-01 00:18:00,
2013-07-31 20:24:00,66.1,65.4,29.88,North,0,0.0,0.0,98,0.02,,,0.68,WUHU216HW,2013-08-01 00:24:00,
2013-07-31 20:29:00,66.1,65.4,29.88,North,0,0.0,0.0,98,0.02,,,0.68,WUHU216HW,2013-08-01 00:29:00,
2013-07-31 20:34:00,66.1,65.4,29.88,North,0,0.0,0.0,98,0.02,,,0.68,WUHU216HW,2013-08-01 00:34:00,
2013-07-31 20:39:00,66.1,65.4,29.88,SW,225,0.5,0.7,98,0.02,,,0.68,WUHU216HW,2013-08-01 00:39:00,
2013-07-31 20:44:00,66.1,65.4,29.88,WSW,248,0.5,0.9,98,0.02,,,0.68,WUHU216HW,2013-08-01 00:44:00,
2013-07-31 20:49:00,65.9,65.2,29.88,SSW,203,0.0,0.2,98,0.02,,,0.68,WUHU216HW,2013-08-01 00:49:00,
2013-07-31 20:54:00,65.9,65.2,29.88,North,0,0.0,0.0,98,0.02,,,0.68,WUHU216HW,2013-08-01 00:54:00,
2013-07-31 20:59:00,65.9,65.2,29.88,SW,216,1.2,1.6,98,0.01,,,0.68,WUHU216HW,2013-08-01 00:59:00,
2013-07-31 21:04:00,65.9,65.2,29.88,NE,45,0.0,0.2,98,0.01,,,0.68,WUHU216HW,2013-08-01 01:04:00,
2013-07-31 21:09:00,65.9,65.2,29.88,West,270,0.1,0.2,98,0.01,,,0.68,WUHU216HW,2013-08-01 01:09:00,
2013-07-31 21:14:00,65.7,65.0,29.88,North,7,1.4,2.0,98,0.01,,,0.68,WUHU216HW,2013-08-01 01:14:00,
2013-07-31 21:19:00,65.7,65.0,29.88,NNE,23,0.2,0.4,98,0.01,,,0.68,WUHU216HW,2013-08-01 01:19:00,
2013-07-31 21:24:00,65.5,64.8,29.87,NNE,23,0.9,1.6,98,0.00,,,0.68,WUHU216HW,2013-08-01 01:24:00,
2013-07-31 21:30:00,65.5,64.8,29.88,North,0,0.0,0.0,98,0.00,,,0.68,WUHU216HW,2013-08-01 01:30:00,
2013-07-31 21:35:00,65.5,64.8,29.88,North,0,0.0,0.0,98,0.00,,,0.68,WUHU216HW,2013-08-01 01:35:00,
2013-07-31 21:40:00,65.5,64.8,29.88,NNW,338,0.5,0.7,98,0.00,,,0.68,WUHU216HW,2013-08-01 01:40:00,
2013-07-31 21:45:00,65.5,64.8,29.87,NNW,330,1.1,2.5,98,0.00,,,0.68,WUHU216HW,2013-08-01 01:45:00,
2013-07-31 21:50:00,65.3,64.6,29.87,NE,45,0.1,0.4,98,0.00,,,0.68,WUHU216HW,2013-08-01 01:50:00,
2013-07-31 21:55:00,65.3,64.6,29.87,SW,225,0.1,0.4,98,0.00,,,0.68,WUHU216HW,2013-08-01 01:55:00,
2013-07-31 22:00:00,65.3,64.6,29.87,NW,319,0.6,1.1,98,0.00,,,0.68,WUHU216HW,2013-08-01 02:00:00,
2013-07-31 22:05:00,65.2,64.5,29.87,North,0,0.3,0.7,98,0.00,,,0.68,WUHU216HW,2013-08-01 02:05:00,
2013-07-31 22:10:00,65.2,64.5,29.87,WSW,248,0.2,0.4,98,0.00,,,0.68,WUHU216HW,2013-08-01 02:10:00,
2013-07-31 22:16:00,65.2,64.2,29.87,West,270,0.1,0.4,97,0.00,,,0.68,WUHU216HW,2013-08-01 02:16:00,
2013-07-31 22:21:00,65.2,64.2,29.87,North,0,0.0,0.0,97,0.00,,,0.68,WUHU216HW,2013-08-01 02:21:00,
2013-07-31 22:26:00,65.2,64.2,29.87,SW,225,0.1,0.4,97,0.00,,,0.68,WUHU216HW,2013-08-01 02:26:00,
2013-07-31 22:31:00,65.0,64.0,29.87,North,0,0.0,0.0,97,0.00,,,0.68,WUHU216HW,2013-08-01 02:31:00,
2013-07-31 22:36:00,64.8,63.8,29.88,SW,225,0.8,0.9,97,0.00,,,0.68,WUHU216HW,2013-08-01 02:36:00,
2013-07-31 22:41:00,64.8,63.8,29.88,SW,225,0.1,0.2,97,0.00,,,0.68,WUHU216HW,2013-08-01 02:41:00,
2013-07-31 22:46:00,64.8,63.8,29.88,SSW,203,0.1,0.2,97,0.00,,,0.68,WUHU216HW,2013-08-01 02:46:00,
2013-07-31 22:51:00,64.8,63.8,29.88,West,270,0.2,0.4,97,0.00,,,0.68,WUHU216HW,2013-08-01 02:51:00,
2013-07-31 22:56:00,64.8,63.8,29.88,ENE,62,0.2,0.4,97,0.00,,,0.68,WUHU216HW,2013-08-01 02:56:00,
2013-07-31 23:02:00,64.8,63.8,29.88,NNW,338,0.1,0.2,97,0.00,,,0.68,WUHU216HW,2013-08-01 03:02:00,
2013-07-31 23:07:00,64.8,63.8,29.88,SW,228,0.8,1.1,97,0.00,,,0.68,WUHU216HW,2013-08-01 03:07:00,
2013-07-31 23:12:00,64.8,63.8,29.87,SSW,203,0.3,0.4,97,0.00,,,0.68,WUHU216HW,2013-08-01 03:12:00,
2013-07-31 23:17:00,64.8,63.8,29.87,SSE,168,0.4,0.7,97,0.00,,,0.68,WUHU216HW,2013-08-01 03:17:00,
2013-07-31 23:22:00,64.8,63.8,29.87,North,0,0.0,0.0,97,0.00,,,0.68,WUHU216HW,2013-08-01 03:22:00,
2013-07-31 23:27:00,64.8,63.8,29.87,NNW,338,1.1,1.8,97,0.00,,,0.68,WUHU216HW,2013-08-01 03:27:00,
2013-07-31 23:32:00,65.0,64.0,29.87,North,0,0.3,0.7,97,0.00,,,0.68,WUHU216HW,2013-08-01 03:32:00,
2013-07-31 23:37:00,64.8,63.8,29.87,SE,135,0.1,0.4,97,0.00,,,0.68,WUHU216HW,2013-08-01 03:37:00,
2013-07-31 23:43:00,65.0,64.0,29.86,WSW,254,1.1,1.3,97,0.00,,,0.68,WUHU216HW,2013-08-01 03:43:00,
2013-07-31 23:48:00,65.0,64.0,29.86,SW,225,0.8,1.3,97,0.00,,,0.68,WUHU216HW,2013-08-01 03:48:00,
2013-07-31 23:53:00,64.8,63.8,29.86,WNW,282,1.0,1.8,97,0.00,,,0.68,WUHU216HW,2013-08-01 03:53:00,
2013-07-31 23:58:00,64.8,63.8,29.85,SW,225,0.0,0.4,97,0.00,,,0.68,WUHU216HW,2013-08-01 03:58:00,